createdAt,value
2022-08-07T00:00:33.077Z,97850.69
2022-08-07T00:03:36.765Z,97854.25
2022-08-07T00:06:40.898Z,97852.03
2022-08-07T00:10:17.724Z,97855.50
2022-08-07T00:13:25.734Z,97858.59
2022-08-07T00:16:28.336Z,97854.41
2022-08-07T00:19:59.657Z,97852.09
2022-08-07T00:22:52.998Z,97855.47
2022-08-07T00:26:01.630Z,97852.41
2022-08-07T00:29:08.570Z,97852.34
2022-08-07T00:32:12.376Z,97859.69
2022-08-07T00:35:16.668Z,97865.38
2022-08-07T00:38:31.219Z,97866.56
2022-08-07T00:41:37.417Z,97864.41
2022-08-07T00:44:47.010Z,97865.66
2022-08-07T00:48:08.915Z,97866.94
2022-08-07T00:51:12.941Z,97870.03
2022-08-07T00:54:15.286Z,97875.66
2022-08-07T00:57:26.251Z,97868.22
2022-08-07T01:00:28.908Z,97855.59
2022-08-07T01:03:56.772Z,97856.94
2022-08-07T01:06:56.514Z,97853.28
2022-08-07T01:10:06.090Z,97849.75
2022-08-07T01:13:16.456Z,97848.47
2022-08-07T01:16:30.493Z,97845.41
2022-08-07T01:19:34.451Z,97850.09
2022-08-07T01:22:53.966Z,97842.34
2022-08-07T01:26:05.511Z,97850.09
2022-08-07T01:29:08.264Z,97852.19
2022-08-07T01:32:12.292Z,97841.88
2022-08-07T01:35:17.414Z,97844.41
2022-08-07T01:38:24.781Z,97844.09
2022-08-07T01:41:30.290Z,97843.63
2022-08-07T01:44:37.058Z,97847.53
2022-08-07T01:48:17.736Z,97835.94
2022-08-07T01:51:24.558Z,97827.19
2022-08-07T01:54:36.802Z,97836.72
2022-08-07T01:58:06.471Z,97839.16
2022-08-07T02:01:44.797Z,97834.94
2022-08-07T02:04:59.614Z,97827.19
2022-08-07T02:08:13.959Z,97831.22
2022-08-07T02:11:30.678Z,97830.81
2022-08-07T02:14:41.061Z,97831.69
2022-08-07T02:17:51.982Z,97828.72
2022-08-07T02:20:57.475Z,97830.00
2022-08-07T02:24:00.060Z,97822.03
2022-08-07T02:27:04.212Z,97821.56
2022-08-07T02:30:08.634Z,97815.22
2022-08-07T02:33:12.666Z,97818.56
2022-08-07T02:36:29.774Z,97812.03
2022-08-07T02:39:43.344Z,97813.81
2022-08-07T02:43:07.888Z,97815.31
2022-08-07T02:46:11.558Z,97809.25
2022-08-07T02:49:56.356Z,97812.97
2022-08-07T02:53:10.924Z,97814.78
2022-08-07T02:56:21.669Z,97816.34
2022-08-07T02:59:27.505Z,97831.31
2022-08-07T03:02:35.791Z,97819.31
2022-08-07T03:05:39.573Z,97827.22
2022-08-07T03:08:43.670Z,97827.84
2022-08-07T03:11:52.544Z,97827.41
2022-08-07T03:15:07.781Z,97820.38
2022-08-07T03:18:11.451Z,97822.41
2022-08-07T03:21:19.403Z,97815.97
2022-08-07T03:24:27.479Z,97815.34
2022-08-07T03:28:08.841Z,97819.03
2022-08-07T03:31:16.912Z,97819.06
2022-08-07T03:34:22.642Z,97819.94
2022-08-07T03:37:37.371Z,97824.28
2022-08-07T03:40:57.174Z,97827.31
2022-08-07T03:43:59.959Z,97825.50
2022-08-07T03:47:13.003Z,97825.53
2022-08-07T03:50:22.854Z,97827.09
2022-08-07T03:53:50.248Z,97820.59
2022-08-07T03:57:06.995Z,97808.78
2022-08-07T04:00:11.504Z,97809.91
2022-08-07T04:03:23.744Z,97817.94
2022-08-07T04:06:37.281Z,97822.03
2022-08-07T04:09:50.261Z,97813.38
2022-08-07T04:12:56.539Z,97821.16
2022-08-07T04:16:00.537Z,97816.88
2022-08-07T04:19:15.209Z,97836.09
2022-08-07T04:22:28.905Z,97831.09
2022-08-07T04:25:39.318Z,97830.88
2022-08-07T04:28:44.235Z,97836.69
2022-08-07T04:32:03.374Z,97836.25
2022-08-07T04:35:11.373Z,97841.56
2022-08-07T04:38:15.501Z,97834.56
2022-08-07T04:41:20.122Z,97853.31
2022-08-07T04:44:26.302Z,97838.78
2022-08-07T04:48:00.461Z,97853.75
2022-08-07T04:51:27.055Z,97850.72
2022-08-07T04:54:36.830Z,97852.69
2022-08-07T04:58:14.419Z,97851.09
2022-08-07T05:01:34.896Z,97847.72
2022-08-07T05:04:57.971Z,97849.81
2022-08-07T05:08:12.444Z,97850.47
2022-08-07T05:11:26.119Z,97851.53
2022-08-07T05:14:55.860Z,97858.00
2022-08-07T05:18:01.653Z,97850.41
2022-08-07T05:21:12.358Z,97861.88
2022-08-07T05:24:20.026Z,97854.97
2022-08-07T05:28:02.872Z,97846.56
2022-08-07T05:30:52.548Z,97852.31
2022-08-07T05:34:04.297Z,97861.88
2022-08-07T05:37:10.309Z,97865.78
2022-08-07T05:40:20.566Z,97866.63
2022-08-07T05:43:49.832Z,97876.00
2022-08-07T05:46:47.639Z,97865.97
2022-08-07T05:49:58.062Z,97867.97
2022-08-07T05:53:03.265Z,97879.22
2022-08-07T05:56:09.087Z,97880.63
2022-08-07T05:59:20.978Z,97873.56
2022-08-07T06:02:30.672Z,97883.34
2022-08-07T06:05:34.495Z,97877.16
2022-08-07T06:08:44.414Z,97879.78
2022-08-07T06:11:49.238Z,97887.22
2022-08-07T06:14:54.921Z,97880.66
2022-08-07T06:18:02.434Z,97879.41
2022-08-07T06:22:14.629Z,97878.19
2022-08-07T06:24:46.199Z,97871.47
2022-08-07T06:28:01.236Z,97875.81
2022-08-07T06:31:04.702Z,97874.09
2022-08-07T06:34:07.919Z,97870.06
2022-08-07T06:37:11.307Z,97863.78
2022-08-07T06:40:21.540Z,97865.75
2022-08-07T06:43:27.462Z,97874.03
2022-08-07T06:46:53.308Z,97865.47
2022-08-07T06:50:03.803Z,97867.50
2022-08-07T06:54:12.225Z,97867.53
2022-08-07T06:56:49.617Z,97870.91
2022-08-07T07:00:12.872Z,97870.63
2022-08-07T07:03:26.497Z,97867.59
2022-08-07T07:07:00.576Z,97869.13
2022-08-07T07:10:03.185Z,97870.72
2022-08-07T07:13:55.959Z,97872.03
2022-08-07T07:16:50.022Z,97872.25
2022-08-07T07:19:59.270Z,97875.97
2022-08-07T07:24:09.336Z,97871.25
2022-08-07T07:26:32.806Z,97873.94
2022-08-07T07:30:09.363Z,97868.72
2022-08-07T07:33:05.968Z,97855.22
2022-08-07T07:36:12.847Z,97863.31
2022-08-07T07:39:17.411Z,97863.13
2022-08-07T07:42:25.856Z,97864.63
2022-08-07T07:46:37.826Z,97863.44
2022-08-07T07:50:15.938Z,97859.31
2022-08-07T07:52:25.268Z,97851.44
2022-08-07T07:55:27.787Z,97858.28
2022-08-07T07:58:41.377Z,97850.00
2022-08-07T08:02:03.731Z,97850.00
2022-08-07T08:05:14.385Z,97841.78
2022-08-07T08:08:35.397Z,97847.31
2022-08-07T08:11:59.426Z,97842.59
2022-08-07T08:15:01.339Z,97843.19
2022-08-07T08:18:17.146Z,97837.28
2022-08-07T08:21:59.136Z,97837.44
2022-08-07T08:25:26.885Z,97841.59
2022-08-07T08:28:45.518Z,97835.34
2022-08-07T08:32:16.930Z,97835.44
2022-08-07T08:35:17.214Z,97837.41
2022-08-07T08:38:22.023Z,97838.16
2022-08-07T08:41:58.667Z,97832.44
2022-08-07T08:45:16.449Z,97824.53
2022-08-07T08:48:45.482Z,97828.56
2022-08-07T08:52:12.380Z,97828.38
2022-08-07T08:55:55.121Z,97829.09
2022-08-07T08:59:23.461Z,97827.91
2022-08-07T09:02:37.375Z,97828.28
2022-08-07T09:05:53.061Z,97831.34
2022-08-07T09:09:30.014Z,97830.41
2022-08-07T09:12:53.354Z,97824.91
2022-08-07T09:16:22.881Z,97824.25
2022-08-07T09:20:35.719Z,97834.81
2022-08-07T09:24:31.664Z,97827.63
2022-08-07T09:27:38.435Z,97829.91
2022-08-07T09:31:10.557Z,97830.44
2022-08-07T09:34:21.481Z,97820.25
2022-08-07T09:37:48.188Z,97809.78
2022-08-07T09:41:22.437Z,97825.84
2022-08-07T09:44:58.548Z,97815.75
2022-08-07T09:48:15.352Z,97810.22
2022-08-07T09:52:15.299Z,97809.00
2022-08-07T09:56:03.289Z,97803.94
2022-08-07T09:59:44.686Z,97794.81
2022-08-07T10:02:57.609Z,97797.06
2022-08-07T10:06:25.702Z,97789.13
2022-08-07T10:10:00.074Z,97787.16
2022-08-07T10:14:01.336Z,97794.31
2022-08-07T10:17:16.419Z,97792.13
2022-08-07T10:20:33.617Z,97788.19
2022-08-07T10:24:18.401Z,97787.09
2022-08-07T10:27:46.032Z,97777.91
2022-08-07T10:30:53.206Z,97776.22
2022-08-07T10:34:32.133Z,97775.19
2022-08-07T10:38:21.843Z,97771.09
2022-08-07T10:41:54.751Z,97764.91
2022-08-07T10:45:43.938Z,97755.31
2022-08-07T10:49:02.241Z,97754.34
2022-08-07T10:52:18.616Z,97752.91
2022-08-07T10:55:37.864Z,97758.66
2022-08-07T10:58:59.473Z,97761.50
2022-08-07T11:02:33.429Z,97746.97
2022-08-07T11:06:05.805Z,97739.34
2022-08-07T11:10:09.676Z,97740.66
2022-08-07T11:13:27.967Z,97733.88
2022-08-07T11:16:51.308Z,97734.31
2022-08-07T11:20:07.353Z,97724.97
2022-08-07T11:23:45.362Z,97720.56
2022-08-07T11:26:57.012Z,97722.00
2022-08-07T11:30:17.917Z,97713.97
2022-08-07T11:33:53.847Z,97715.03
2022-08-07T11:37:24.364Z,97713.44
2022-08-07T11:40:51.704Z,97709.25
2022-08-07T11:44:12.622Z,97707.16
2022-08-07T11:47:38.515Z,97702.34
2022-08-07T11:51:00.864Z,97694.78
2022-08-07T11:54:34.670Z,97694.13
2022-08-07T11:58:12.574Z,97699.59
2022-08-07T12:02:00.905Z,97701.72
2022-08-07T12:05:41.138Z,97697.72
2022-08-07T12:08:53.627Z,97694.81
2022-08-07T12:12:11.634Z,97685.72
2022-08-07T12:15:46.069Z,97690.00
2022-08-07T12:19:35.594Z,97679.38
2022-08-07T12:23:21.466Z,97680.56
2022-08-07T12:26:49.128Z,97673.41
2022-08-07T12:30:02.333Z,97673.63
2022-08-07T12:33:23.102Z,97674.16
2022-08-07T12:36:33.393Z,97662.97
2022-08-07T12:39:42.856Z,97661.91
2022-08-07T12:42:54.826Z,97655.50
2022-08-07T12:46:16.001Z,97672.97
2022-08-07T12:49:51.561Z,97672.44
2022-08-07T12:53:17.878Z,97669.00
2022-08-07T12:56:31.287Z,97660.31
2022-08-07T12:59:54.769Z,97660.31
2022-08-07T13:03:54.984Z,97657.53
2022-08-07T13:08:14.055Z,97651.00
2022-08-07T13:11:09.415Z,97655.03
2022-08-07T13:14:52.571Z,97642.97
2022-08-07T13:18:26.471Z,97644.00
2022-08-07T13:21:57.706Z,97640.25
2022-08-07T13:25:23.993Z,97638.84
2022-08-07T13:28:39.352Z,97631.63
2022-08-07T13:31:57.791Z,97625.66
2022-08-07T13:35:10.481Z,97624.16
2022-08-07T13:38:47.443Z,97619.50
2022-08-07T13:41:50.910Z,97619.44
2022-08-07T13:46:07.366Z,97614.84
2022-08-07T13:48:34.175Z,97604.72
2022-08-07T13:52:27.100Z,97605.81
2022-08-07T13:55:06.453Z,97602.06
2022-08-07T13:58:31.666Z,97602.81
2022-08-07T14:01:59.388Z,97597.84
2022-08-07T14:05:06.453Z,97594.88
2022-08-07T14:08:09.799Z,97593.94
2022-08-07T14:11:17.457Z,97594.06
2022-08-07T14:14:22.695Z,97587.91
2022-08-07T14:17:51.542Z,97587.94
2022-08-07T14:21:08.366Z,97592.94
2022-08-07T14:24:45.925Z,97578.94
2022-08-07T14:28:12.652Z,97575.50
2022-08-07T14:31:14.296Z,97568.69
2022-08-07T14:34:21.955Z,97574.41
2022-08-07T14:37:36.294Z,97566.84
2022-08-07T14:40:49.399Z,97567.72
2022-08-07T14:43:58.834Z,97551.16
2022-08-07T14:47:16.390Z,97563.09
2022-08-07T14:50:20.496Z,97554.13
2022-08-07T14:54:05.668Z,97559.44
2022-08-07T14:56:50.264Z,97561.06
2022-08-07T15:00:05.752Z,97546.53
2022-08-07T15:06:35.279Z,97553.22
2022-08-07T15:09:59.190Z,97549.06
2022-08-07T15:13:11.591Z,97555.25
2022-08-07T15:16:33.605Z,97548.56
2022-08-07T15:20:31.159Z,97554.34
2022-08-07T15:23:15.082Z,97552.94
2022-08-07T15:26:31.976Z,97548.06
2022-08-07T15:30:04.545Z,97549.88
2022-08-07T15:33:19.466Z,97550.78
2022-08-07T15:37:03.109Z,97541.75
2022-08-07T15:39:56.510Z,97540.84
2022-08-07T15:43:05.669Z,97547.56
2022-08-07T15:46:31.542Z,97541.06
2022-08-07T15:53:13.831Z,97536.22
2022-08-07T15:56:15.939Z,97537.78
2022-08-07T15:59:20.196Z,97525.22
2022-08-07T16:02:47.016Z,97532.56
2022-08-07T16:05:51.052Z,97534.78
2022-08-07T16:08:55.356Z,97534.09
2022-08-07T16:12:12.312Z,97529.69
2022-08-07T16:15:57.821Z,97522.47
2022-08-07T16:19:03.519Z,97530.28
2022-08-07T16:22:37.611Z,97517.31
2022-08-07T16:25:54.935Z,97519.19
2022-08-07T16:30:11.749Z,97511.88
2022-08-07T16:32:58.667Z,97509.59
2022-08-07T16:36:19.902Z,97514.44
2022-08-07T16:39:40.407Z,97516.50
2022-08-07T16:43:21.667Z,97517.72
2022-08-07T16:47:04.802Z,97511.94
2022-08-07T16:50:38.897Z,97515.22
2022-08-07T16:54:05.990Z,97509.47
2022-08-07T16:58:02.016Z,97504.03
2022-08-07T17:01:16.178Z,97501.91
2022-08-07T17:06:01.526Z,97507.63
2022-08-07T17:09:09.390Z,97510.44
2022-08-07T17:12:35.031Z,97516.69
2022-08-07T17:16:20.448Z,97513.72
2022-08-07T17:20:02.055Z,97509.13
2022-08-07T17:23:12.915Z,97512.75
2022-08-07T17:26:24.160Z,97523.47
2022-08-07T17:30:13.890Z,97521.53
2022-08-07T17:34:10.229Z,97521.75
2022-08-07T17:37:14.220Z,97522.72
2022-08-07T17:40:30.474Z,97526.66
2022-08-07T17:44:01.887Z,97527.50
2022-08-07T17:47:42.631Z,97528.81
2022-08-07T17:50:47.060Z,97530.81
2022-08-07T17:54:06.180Z,97529.25
2022-08-07T17:57:24.057Z,97531.06
2022-08-07T18:00:34.175Z,97527.94
2022-08-07T18:04:07.335Z,97527.88
2022-08-07T18:07:20.299Z,97528.59
2022-08-07T18:10:33.100Z,97532.56
2022-08-07T18:13:45.643Z,97537.94
2022-08-07T18:16:58.203Z,97534.84
2022-08-07T18:21:10.964Z,97532.47
2022-08-07T18:23:57.533Z,97534.78
2022-08-07T18:27:17.329Z,97546.75
2022-08-07T18:30:50.074Z,97554.00
2022-08-07T18:34:40.925Z,97558.47
2022-08-07T18:38:55.408Z,97568.72
2022-08-07T18:42:05.114Z,97575.00
2022-08-07T18:45:43.078Z,97579.84
2022-08-07T18:50:31.692Z,97580.50
2022-08-07T18:52:53.171Z,97594.78
2022-08-07T18:56:14.022Z,97594.78
2022-08-07T18:59:58.790Z,97600.47
2022-08-07T19:03:11.621Z,97595.41
2022-08-07T19:06:48.262Z,97601.69
2022-08-07T19:10:12.080Z,97602.28
2022-08-07T19:13:27.445Z,97611.44
2022-08-07T19:17:08.136Z,97616.44
2022-08-07T19:20:29.782Z,97621.66
2022-08-07T19:23:58.990Z,97631.41
2022-08-07T19:28:30.681Z,97635.19
2022-08-07T19:31:00.549Z,97637.22
2022-08-07T19:33:58.008Z,97648.00
2022-08-07T19:37:09.875Z,97644.41
2022-08-07T19:40:30.865Z,97648.00
2022-08-07T19:43:49.247Z,97655.72
2022-08-07T19:47:02.910Z,97646.84
2022-08-07T19:50:41.288Z,97664.88
2022-08-07T19:54:33.486Z,97659.53
2022-08-07T19:57:51.707Z,97652.88
2022-08-07T20:03:34.869Z,97662.09
2022-08-07T20:06:43.118Z,97663.00
2022-08-07T20:10:37.291Z,97655.84
2022-08-07T20:13:22.669Z,97658.22
2022-08-07T20:16:35.385Z,97646.81
2022-08-07T20:19:48.387Z,97647.56
2022-08-07T20:23:41.088Z,97642.75
2022-08-07T20:26:44.762Z,97644.84
2022-08-07T20:29:57.442Z,97645.44
2022-08-07T20:33:04.261Z,97644.09
2022-08-07T20:36:08.944Z,97641.19
2022-08-07T20:40:01.168Z,97645.50
2022-08-07T20:42:49.301Z,97639.59
2022-08-07T20:46:26.657Z,97632.91
2022-08-07T20:49:59.716Z,97638.31
2022-08-07T20:52:51.181Z,97642.16
2022-08-07T20:55:58.398Z,97636.47
2022-08-07T20:59:05.362Z,97639.97
2022-08-07T21:02:39.343Z,97632.16
2022-08-07T21:05:54.376Z,97638.13
2022-08-07T21:09:13.707Z,97634.53
2022-08-07T21:12:16.876Z,97632.72
2022-08-07T21:15:47.578Z,97640.13
2022-08-07T21:18:57.636Z,97635.88
2022-08-07T21:22:04.307Z,97639.66
2022-08-07T21:25:44.427Z,97635.53
2022-08-07T21:29:18.204Z,97638.25
2022-08-07T21:32:46.771Z,97647.84
2022-08-07T21:36:05.376Z,97639.69
2022-08-07T21:39:54.929Z,97646.19
2022-08-07T21:43:23.067Z,97650.59
2022-08-07T21:46:35.020Z,97654.25
2022-08-07T21:50:01.808Z,97654.84
2022-08-07T21:53:22.383Z,97663.16
2022-08-07T21:56:49.045Z,97666.53
2022-08-07T22:00:04.819Z,97660.22
2022-08-07T22:03:34.354Z,97661.16
2022-08-07T22:06:45.650Z,97676.00
2022-08-07T22:09:56.181Z,97661.69
2022-08-07T22:13:12.533Z,97669.50
2022-08-07T22:16:40.096Z,97671.78
2022-08-07T22:20:23.516Z,97668.19
2022-08-07T22:23:40.227Z,97663.03
2022-08-07T22:26:50.187Z,97663.66
2022-08-07T22:29:58.409Z,97664.50
2022-08-07T22:33:13.069Z,97661.84
2022-08-07T22:36:31.302Z,97662.00
2022-08-07T22:40:11.116Z,97659.31
2022-08-07T22:43:17.577Z,97660.59
2022-08-07T22:47:03.526Z,97659.81
2022-08-07T22:50:37.682Z,97662.44
2022-08-07T22:54:08.584Z,97661.94
2022-08-07T22:57:29.563Z,97668.88
2022-08-07T23:00:54.096Z,97660.31
2022-08-07T23:04:06.418Z,97667.38
2022-08-07T23:07:42.191Z,97662.66
2022-08-07T23:11:28.349Z,97659.88
2022-08-07T23:14:47.617Z,97668.41
2022-08-07T23:18:13.147Z,97662.31
2022-08-07T23:21:30.250Z,97664.69
2022-08-07T23:24:50.239Z,97674.28
2022-08-07T23:28:28.236Z,97668.72
2022-08-07T23:32:49.386Z,97670.75
2022-08-07T23:35:13.414Z,97664.00
2022-08-07T23:39:04.840Z,97664.03
2022-08-07T23:42:25.620Z,97664.53
2022-08-07T23:46:03.707Z,97665.53
2022-08-07T23:49:15.317Z,97668.22
2022-08-07T23:53:05.949Z,97669.91
2022-08-07T23:56:14.539Z,97669.22
